createdAt,value
2022-09-26T00:00:18.226Z,101584.61
2022-09-26T00:02:51.507Z,101583.63
2022-09-26T00:05:04.870Z,101579.33
2022-09-26T00:07:18.214Z,101579.56
2022-09-26T00:09:32.304Z,101581.80
2022-09-26T00:11:45.771Z,101581.36
2022-09-26T00:14:01.452Z,101583.84
2022-09-26T00:16:16.840Z,101584.46
2022-09-26T00:18:30.412Z,101579.00
2022-09-26T00:20:45.161Z,101576.56
2022-09-26T00:22:58.435Z,101573.30
2022-09-26T00:25:14.036Z,101569.66
2022-09-26T00:27:27.287Z,101566.48
2022-09-26T00:29:40.511Z,101564.77
2022-09-26T00:31:54.870Z,101562.77
2022-09-26T00:34:08.616Z,101561.94
2022-09-26T00:36:29.670Z,101559.67
2022-09-26T00:38:50.466Z,101559.19
2022-09-26T00:41:04.013Z,101560.31
2022-09-26T00:43:33.742Z,101557.99
2022-09-26T00:45:47.716Z,101560.91
2022-09-26T00:48:05.047Z,101560.29
2022-09-26T00:50:24.201Z,101562.69
2022-09-26T00:52:40.330Z,101562.67
2022-09-26T00:54:57.983Z,101560.20
2022-09-26T00:57:16.064Z,101561.77
2022-09-26T00:59:32.146Z,101560.35
2022-09-26T01:01:46.375Z,101562.14
2022-09-26T01:04:00.996Z,101554.89
2022-09-26T01:06:15.236Z,101554.08
2022-09-26T01:08:35.379Z,101546.52
2022-09-26T01:10:48.873Z,101553.27
2022-09-26T01:13:03.394Z,101554.27
2022-09-26T01:15:17.460Z,101556.15
2022-09-26T01:17:31.454Z,101554.95
2022-09-26T01:20:02.826Z,101558.41
2022-09-26T01:22:49.339Z,101553.44
2022-09-26T01:25:22.285Z,101555.61
2022-09-26T01:28:09.992Z,101551.23
2022-09-26T01:30:27.831Z,101552.93
2022-09-26T01:32:56.903Z,101551.38
2022-09-26T01:35:20.873Z,101554.66
2022-09-26T01:37:43.808Z,101557.48
2022-09-26T01:40:07.301Z,101560.36
2022-09-26T01:42:29.876Z,101557.17
2022-09-26T01:44:45.307Z,101561.70
2022-09-26T01:47:05.472Z,101560.58
2022-09-26T01:49:22.931Z,101558.28
2022-09-26T01:51:42.721Z,101554.84
2022-09-26T01:53:59.975Z,101553.45
2022-09-26T01:56:17.773Z,101547.23
2022-09-26T01:58:36.965Z,101547.03
2022-09-26T02:00:54.042Z,101546.75
2022-09-26T02:03:09.553Z,101550.59
2022-09-26T02:05:30.499Z,101548.22
2022-09-26T02:07:48.028Z,101546.29
2022-09-26T02:10:05.470Z,101542.54
2022-09-26T02:12:34.062Z,101541.59
2022-09-26T02:14:51.460Z,101540.10
2022-09-26T02:17:09.803Z,101535.51
2022-09-26T02:19:26.974Z,101533.38
2022-09-26T02:21:40.842Z,101535.80
2022-09-26T02:23:56.343Z,101532.81
2022-09-26T02:26:10.422Z,101533.36
2022-09-26T02:28:24.632Z,101526.60
2022-09-26T02:30:38.648Z,101528.39
2022-09-26T02:32:52.558Z,101532.02
2022-09-26T02:35:37.919Z,101531.25
2022-09-26T02:37:51.269Z,101531.81
2022-09-26T02:40:05.179Z,101529.46
2022-09-26T02:42:29.587Z,101529.65
2022-09-26T02:44:54.786Z,101525.52
2022-09-26T02:47:26.669Z,101528.51
2022-09-26T02:50:04.357Z,101530.20
2022-09-26T02:52:33.738Z,101523.30
2022-09-26T02:54:57.069Z,101522.16
2022-09-26T02:57:30.087Z,101524.33
2022-09-26T02:59:46.840Z,101523.29
2022-09-26T03:02:08.930Z,101528.86
2022-09-26T03:04:33.791Z,101523.40
2022-09-26T03:06:51.333Z,101522.77
2022-09-26T03:09:06.955Z,101526.48
2022-09-26T03:11:27.539Z,101527.27
2022-09-26T03:13:44.037Z,101528.08
2022-09-26T03:16:00.019Z,101524.99
2022-09-26T03:18:18.321Z,101521.52
2022-09-26T03:20:32.644Z,101525.51
2022-09-26T03:22:46.972Z,101527.14
2022-09-26T03:25:01.943Z,101525.26
2022-09-26T03:27:20.094Z,101527.02
2022-09-26T03:29:35.448Z,101531.17
2022-09-26T03:31:51.549Z,101535.68
2022-09-26T03:34:05.528Z,101534.29
2022-09-26T03:36:18.915Z,101531.39
2022-09-26T03:38:32.399Z,101528.02
2022-09-26T03:40:56.979Z,101525.02
2022-09-26T03:43:44.929Z,101523.73
2022-09-26T03:45:58.534Z,101524.14
2022-09-26T03:48:12.728Z,101526.64
2022-09-26T03:50:26.224Z,101526.00
2022-09-26T03:52:39.642Z,101526.47
2022-09-26T03:54:54.434Z,101525.89
2022-09-26T03:57:07.957Z,101520.86
2022-09-26T03:59:24.233Z,101520.77
2022-09-26T04:01:37.781Z,101520.36
2022-09-26T04:03:52.757Z,101523.70
2022-09-26T04:06:06.504Z,101520.23
2022-09-26T04:08:19.927Z,101518.66
2022-09-26T04:10:34.479Z,101520.13
2022-09-26T04:12:48.653Z,101522.51
2022-09-26T04:15:02.489Z,101521.19
2022-09-26T04:17:18.001Z,101519.53
2022-09-26T04:19:33.260Z,101512.73
2022-09-26T04:21:46.933Z,101515.90
2022-09-26T04:24:01.337Z,101517.87
2022-09-26T04:26:21.733Z,101516.07
2022-09-26T04:28:36.589Z,101517.13
2022-09-26T04:30:50.748Z,101515.63
2022-09-26T04:33:04.701Z,101516.58
2022-09-26T04:35:18.063Z,101520.52
2022-09-26T04:37:31.587Z,101518.50
2022-09-26T04:39:44.993Z,101518.41
2022-09-26T04:41:59.147Z,101513.29
2022-09-26T04:44:13.995Z,101513.52
2022-09-26T04:46:30.911Z,101521.79
2022-09-26T04:48:45.516Z,101516.79
2022-09-26T04:51:03.203Z,101518.05
2022-09-26T04:53:16.415Z,101521.11
2022-09-26T04:55:36.397Z,101515.97
2022-09-26T04:57:52.153Z,101513.17
2022-09-26T05:00:06.015Z,101513.84
2022-09-26T05:02:21.426Z,101519.12
2022-09-26T05:04:34.734Z,101519.52
2022-09-26T05:06:48.249Z,101516.30
2022-09-26T05:09:10.198Z,101521.06
2022-09-26T05:11:31.307Z,101526.45
2022-09-26T05:13:45.155Z,101524.10
2022-09-26T05:15:59.498Z,101515.41
2022-09-26T05:18:13.707Z,101512.60
2022-09-26T05:20:30.273Z,101508.17
2022-09-26T05:22:46.016Z,101511.44
2022-09-26T05:25:16.014Z,101508.46
2022-09-26T05:27:29.693Z,101502.98
2022-09-26T05:29:42.858Z,101501.45
2022-09-26T05:31:57.643Z,101500.08
2022-09-26T05:34:19.494Z,101501.45
2022-09-26T05:36:33.971Z,101502.17
2022-09-26T05:38:47.359Z,101500.97
2022-09-26T05:41:02.031Z,101499.02
2022-09-26T05:43:15.367Z,101493.92
2022-09-26T05:45:28.917Z,101495.14
2022-09-26T05:47:43.687Z,101496.31
2022-09-26T05:49:57.803Z,101497.00
2022-09-26T05:52:11.502Z,101497.05
2022-09-26T05:54:25.402Z,101497.23
2022-09-26T05:56:39.856Z,101496.40
2022-09-26T05:59:13.006Z,101501.23
2022-09-26T06:01:44.617Z,101500.96
2022-09-26T06:04:04.065Z,101500.42
2022-09-26T06:06:23.487Z,101504.14
2022-09-26T06:08:42.279Z,101508.59
2022-09-26T06:11:09.478Z,101507.16
2022-09-26T06:13:22.962Z,101508.71
2022-09-26T06:15:37.495Z,101509.63
2022-09-26T06:17:51.358Z,101507.27
2022-09-26T06:20:04.746Z,101506.77
2022-09-26T06:22:18.792Z,101505.66
2022-09-26T06:24:33.901Z,101506.06
2022-09-26T06:26:48.908Z,101500.31
2022-09-26T06:29:02.959Z,101502.02
2022-09-26T06:31:23.269Z,101500.84
2022-09-26T06:33:58.390Z,101505.02
2022-09-26T06:36:30.697Z,101507.11
2022-09-26T06:38:44.142Z,101506.13
2022-09-26T06:41:02.094Z,101511.39
2022-09-26T06:43:15.698Z,101515.55
2022-09-26T06:45:50.240Z,101517.75
2022-09-26T06:48:13.127Z,101512.07
2022-09-26T06:50:43.153Z,101509.49
2022-09-26T06:52:56.479Z,101505.55
2022-09-26T06:55:12.459Z,101504.95
2022-09-26T06:57:26.017Z,101503.73
2022-09-26T06:59:40.275Z,101504.98
2022-09-26T07:02:05.378Z,101505.73
2022-09-26T07:04:37.080Z,101505.25
2022-09-26T07:06:53.217Z,101506.20
2022-09-26T07:09:15.062Z,101508.59
2022-09-26T07:12:09.420Z,101513.05
2022-09-26T07:14:12.080Z,101511.27
2022-09-26T07:16:25.629Z,101507.93
2022-09-26T07:18:57.497Z,101502.39
2022-09-26T07:21:46.474Z,101495.44
2022-09-26T07:24:19.911Z,101498.97
2022-09-26T07:26:33.322Z,101499.45
2022-09-26T07:28:50.817Z,101494.30
2022-09-26T07:31:07.313Z,101495.48
2022-09-26T07:33:26.970Z,101493.55
2022-09-26T07:35:45.626Z,101488.96
2022-09-26T07:37:59.772Z,101485.90
2022-09-26T07:40:15.506Z,101486.09
2022-09-26T07:42:29.113Z,101485.40
2022-09-26T07:47:32.433Z,101483.27
2022-09-26T07:50:04.097Z,101483.61
2022-09-26T07:52:37.491Z,101480.84
2022-09-26T07:55:15.198Z,101476.55
2022-09-26T07:57:49.591Z,101476.70
2022-09-26T08:00:32.829Z,101480.16
2022-09-26T08:03:06.075Z,101477.49
2022-09-26T08:05:23.506Z,101478.05
2022-09-26T08:07:38.470Z,101477.92
2022-09-26T08:10:19.702Z,101481.91
2022-09-26T08:12:59.920Z,101478.45
2022-09-26T08:15:49.045Z,101478.88
2022-09-26T08:18:10.030Z,101482.52
2022-09-26T08:20:25.433Z,101484.64
2022-09-26T08:22:41.964Z,101484.45
2022-09-26T08:24:58.110Z,101483.73
2022-09-26T08:27:28.211Z,101487.86
2022-09-26T08:29:43.493Z,101488.54
2022-09-26T08:31:56.970Z,101489.35
2022-09-26T08:34:11.118Z,101487.98
2022-09-26T08:36:24.380Z,101490.67
2022-09-26T08:38:58.042Z,101492.51
2022-09-26T08:42:04.773Z,101490.42
2022-09-26T08:44:55.904Z,101488.16
2022-09-26T08:47:44.033Z,101483.65
2022-09-26T08:50:21.711Z,101472.74
2022-09-26T08:52:44.005Z,101472.50
2022-09-26T08:54:59.132Z,101468.33
2022-09-26T08:57:29.597Z,101465.99
2022-09-26T08:59:46.674Z,101460.70
2022-09-26T09:02:08.263Z,101460.05
2022-09-26T09:04:42.151Z,101455.62
2022-09-26T09:07:01.864Z,101452.20
2022-09-26T09:09:19.281Z,101450.70
2022-09-26T09:12:08.688Z,101444.14
2022-09-26T09:14:33.850Z,101444.66
2022-09-26T09:16:58.900Z,101442.05
2022-09-26T09:19:39.558Z,101445.17
2022-09-26T09:22:36.656Z,101451.54
2022-09-26T09:25:04.556Z,101456.56
2022-09-26T09:30:17.113Z,101456.30
2022-09-26T09:32:43.171Z,101450.27
2022-09-26T09:35:22.721Z,101449.20
2022-09-26T09:37:57.298Z,101446.50
2022-09-26T09:40:33.973Z,101452.23
2022-09-26T09:42:52.985Z,101452.59
2022-09-26T09:45:09.149Z,101454.08
2022-09-26T09:47:24.288Z,101456.05
2022-09-26T09:49:38.839Z,101461.69
2022-09-26T09:52:03.572Z,101466.67
2022-09-26T09:54:43.578Z,101467.11
2022-09-26T09:57:08.221Z,101469.33
2022-09-26T09:59:44.330Z,101472.49
2022-09-26T10:02:03.669Z,101470.78
2022-09-26T10:04:36.069Z,101471.42
2022-09-26T10:06:47.965Z,101477.50
2022-09-26T10:09:35.928Z,101481.13
2022-09-26T10:12:01.913Z,101481.15
2022-09-26T10:14:34.664Z,101474.39
2022-09-26T10:17:15.713Z,101476.95
2022-09-26T10:19:43.433Z,101475.13
2022-09-26T10:21:57.380Z,101479.15
2022-09-26T10:24:25.247Z,101478.13
2022-09-26T10:26:48.432Z,101478.57
2022-09-26T10:29:25.224Z,101478.36
2022-09-26T10:31:43.060Z,101476.83
2022-09-26T10:34:06.742Z,101474.14
2022-09-26T10:36:25.036Z,101470.54
2022-09-26T10:39:12.262Z,101469.70
2022-09-26T10:41:30.606Z,101469.74
2022-09-26T10:43:55.232Z,101474.41
2022-09-26T10:46:28.358Z,101476.98
2022-09-26T10:49:03.410Z,101475.82
2022-09-26T10:51:42.705Z,101471.00
2022-09-26T10:53:58.550Z,101464.86
2022-09-26T10:56:18.175Z,101463.89
2022-09-26T10:58:33.645Z,101463.75
2022-09-26T11:00:51.748Z,101463.50
2022-09-26T11:03:07.787Z,101463.94
2022-09-26T11:05:41.527Z,101460.60
2022-09-26T11:08:02.870Z,101458.30
2022-09-26T11:10:37.550Z,101461.14
2022-09-26T11:13:07.174Z,101459.85
2022-09-26T11:15:21.585Z,101455.58
2022-09-26T11:17:51.913Z,101458.11
2022-09-26T11:20:10.684Z,101463.52
2022-09-26T11:22:28.517Z,101459.39
2022-09-26T11:24:49.891Z,101460.23
2022-09-26T11:27:15.255Z,101458.29
2022-09-26T11:29:37.384Z,101459.05
2022-09-26T11:32:00.055Z,101464.48
2022-09-26T11:34:38.199Z,101461.65
2022-09-26T11:37:14.609Z,101461.48
2022-09-26T11:39:43.594Z,101458.40
2022-09-26T11:42:10.592Z,101464.98
2022-09-26T11:44:46.885Z,101465.46
2022-09-26T11:47:22.347Z,101459.89
2022-09-26T11:49:57.324Z,101460.52
2022-09-26T11:52:48.369Z,101461.65
2022-09-26T11:55:15.735Z,101461.09
2022-09-26T11:57:43.200Z,101458.35
2022-09-26T12:00:11.466Z,101458.56
2022-09-26T12:02:58.556Z,101455.13
2022-09-26T12:05:33.671Z,101456.50
2022-09-26T12:07:52.298Z,101454.61
2022-09-26T12:10:18.557Z,101454.53
2022-09-26T12:12:43.105Z,101449.25
2022-09-26T12:15:10.887Z,101449.09
2022-09-26T12:17:28.760Z,101448.20
2022-09-26T12:19:47.367Z,101446.45
2022-09-26T12:22:25.743Z,101446.15
2022-09-26T12:24:46.438Z,101453.24
2022-09-26T12:27:08.133Z,101452.74
2022-09-26T12:29:42.244Z,101452.72
2022-09-26T12:32:10.721Z,101452.76
2022-09-26T12:34:42.403Z,101457.86
2022-09-26T12:37:05.635Z,101456.54
2022-09-26T12:39:32.453Z,101455.95
2022-09-26T12:42:09.596Z,101461.36
2022-09-26T12:44:40.097Z,101461.98
2022-09-26T12:47:08.554Z,101464.27
2022-09-26T12:49:46.266Z,101464.69
2022-09-26T12:52:05.429Z,101464.22
2022-09-26T12:54:37.734Z,101467.27
2022-09-26T12:57:06.173Z,101467.49
2022-09-26T12:59:38.359Z,101466.06
2022-09-26T13:02:18.151Z,101468.99
2022-09-26T13:04:54.109Z,101468.71
2022-09-26T13:07:20.058Z,101469.61
2022-09-26T13:09:49.231Z,101468.67
2022-09-26T13:12:18.075Z,101470.80
2022-09-26T13:14:46.339Z,101474.14
2022-09-26T13:17:12.705Z,101472.15
2022-09-26T13:19:32.905Z,101472.37
2022-09-26T13:21:52.280Z,101468.27
2022-09-26T13:24:10.875Z,101473.90
2022-09-26T13:26:30.207Z,101472.41
2022-09-26T13:29:06.333Z,101474.84
2022-09-26T13:31:24.205Z,101476.73
2022-09-26T13:33:42.035Z,101479.88
2022-09-26T13:35:59.268Z,101483.08
2022-09-26T13:38:26.457Z,101485.60
2022-09-26T13:40:48.416Z,101483.02
2022-09-26T13:43:11.390Z,101487.73
2022-09-26T13:45:33.516Z,101487.29
2022-09-26T13:47:54.962Z,101487.09
2022-09-26T13:50:24.486Z,101488.05
2022-09-26T13:52:48.021Z,101488.60
2022-09-26T13:55:06.568Z,101488.61
2022-09-26T13:57:40.088Z,101492.08
2022-09-26T13:59:59.702Z,101492.70
2022-09-26T14:02:37.664Z,101492.27
2022-09-26T14:04:52.039Z,101492.00
2022-09-26T14:07:36.810Z,101495.09
2022-09-26T14:10:08.741Z,101493.65
2022-09-26T14:12:34.370Z,101490.56
2022-09-26T14:14:54.082Z,101496.48
2022-09-26T14:17:28.799Z,101494.49
2022-09-26T14:19:46.173Z,101497.61
2022-09-26T14:22:09.893Z,101498.91
2022-09-26T14:24:44.228Z,101499.90
2022-09-26T14:27:06.966Z,101505.36
2022-09-26T14:29:28.111Z,101503.29
2022-09-26T14:31:44.262Z,101506.66
2022-09-26T14:34:14.806Z,101512.52
2022-09-26T14:36:38.439Z,101516.16
2022-09-26T14:38:56.026Z,101516.88
2022-09-26T14:41:10.032Z,101519.33
2022-09-26T14:43:26.946Z,101519.83
2022-09-26T14:45:52.604Z,101520.88
2022-09-26T14:48:17.113Z,101522.32
2022-09-26T14:50:36.533Z,101524.44
2022-09-26T14:52:57.613Z,101524.23
2022-09-26T14:55:12.020Z,101526.07
2022-09-26T14:57:32.833Z,101526.48
2022-09-26T14:59:49.515Z,101526.75
2022-09-26T15:02:25.547Z,101527.13
2022-09-26T15:04:39.833Z,101530.19
2022-09-26T15:06:54.973Z,101531.59
2022-09-26T15:09:15.622Z,101531.44
2022-09-26T15:11:41.242Z,101530.20
2022-09-26T15:13:56.544Z,101531.40
2022-09-26T15:16:33.635Z,101534.79
2022-09-26T15:18:49.471Z,101533.54
2022-09-26T15:21:07.408Z,101536.55
2022-09-26T15:23:32.299Z,101537.08
2022-09-26T15:25:45.930Z,101535.27
2022-09-26T15:28:00.546Z,101537.71
2022-09-26T15:30:23.753Z,101537.34
2022-09-26T15:32:38.136Z,101537.05
2022-09-26T15:34:52.287Z,101538.31
2022-09-26T15:37:12.416Z,101538.97
2022-09-26T15:39:45.681Z,101540.84
2022-09-26T15:42:14.915Z,101542.44
2022-09-26T15:44:30.316Z,101542.54
2022-09-26T15:46:44.083Z,101545.15
2022-09-26T15:48:58.694Z,101545.44
2022-09-26T15:51:19.384Z,101545.69
2022-09-26T15:53:38.444Z,101547.43
2022-09-26T15:55:57.341Z,101548.39
2022-09-26T15:58:16.580Z,101548.04
2022-09-26T16:00:33.433Z,101549.71
2022-09-26T16:02:47.809Z,101547.45
2022-09-26T16:05:02.192Z,101547.05
2022-09-26T16:07:23.935Z,101545.30
2022-09-26T16:09:44.248Z,101547.02
2022-09-26T16:12:01.673Z,101550.98
2022-09-26T16:14:27.959Z,101548.61
2022-09-26T16:16:41.400Z,101549.81
2022-09-26T16:19:01.810Z,101552.54
2022-09-26T16:21:26.982Z,101549.13
2022-09-26T16:23:51.556Z,101554.19
2022-09-26T16:26:06.230Z,101548.30
2022-09-26T16:28:49.304Z,101551.11
2022-09-26T16:31:12.288Z,101552.42
2022-09-26T16:33:35.735Z,101548.95
2022-09-26T16:35:52.765Z,101552.86
2022-09-26T16:38:08.553Z,101551.79
2022-09-26T16:40:23.659Z,101554.27
2022-09-26T16:42:37.991Z,101557.11
2022-09-26T16:44:57.346Z,101557.15
2022-09-26T16:47:31.934Z,101553.48
2022-09-26T16:49:50.663Z,101554.98
2022-09-26T16:52:28.072Z,101550.63
2022-09-26T16:54:41.508Z,101548.86
2022-09-26T16:56:55.769Z,101547.54
2022-09-26T16:59:17.784Z,101541.67
2022-09-26T17:01:47.816Z,101543.80
2022-09-26T17:04:01.635Z,101546.44
2022-09-26T17:06:16.349Z,101546.52
2022-09-26T17:08:30.269Z,101550.51
2022-09-26T17:10:45.177Z,101550.72
2022-09-26T17:13:03.699Z,101549.42
2022-09-26T17:15:24.629Z,101550.77
2022-09-26T17:17:39.600Z,101547.21
2022-09-26T17:19:59.392Z,101553.91
2022-09-26T17:22:18.814Z,101555.75
2022-09-26T17:24:34.278Z,101551.29
2022-09-26T17:26:52.411Z,101554.14
2022-09-26T17:29:08.364Z,101557.85
2022-09-26T17:31:23.329Z,101555.41
2022-09-26T17:33:37.779Z,101557.95
2022-09-26T17:35:51.386Z,101558.65
2022-09-26T17:38:04.887Z,101561.30
2022-09-26T17:40:25.356Z,101559.59
2022-09-26T17:42:38.677Z,101560.16
2022-09-26T17:44:52.243Z,101561.67
2022-09-26T17:47:06.227Z,101565.63
2022-09-26T17:49:23.956Z,101563.36
2022-09-26T17:51:37.950Z,101563.90
2022-09-26T17:53:53.531Z,101565.00
2022-09-26T17:56:07.738Z,101564.27
2022-09-26T17:58:21.452Z,101565.17
2022-09-26T18:00:44.818Z,101566.04
2022-09-26T18:03:05.058Z,101564.89
2022-09-26T18:05:23.884Z,101563.84
2022-09-26T18:07:41.753Z,101564.70
2022-09-26T18:09:55.688Z,101565.13
2022-09-26T18:12:13.528Z,101565.69
2022-09-26T18:14:26.751Z,101565.43
2022-09-26T18:16:40.150Z,101567.30
2022-09-26T18:18:53.871Z,101564.60
2022-09-26T18:21:07.212Z,101563.38
2022-09-26T18:23:24.722Z,101565.46
2022-09-26T18:25:40.301Z,101565.26
2022-09-26T18:27:55.337Z,101563.08
2022-09-26T18:30:10.262Z,101564.47
2022-09-26T18:32:29.298Z,101561.94
2022-09-26T18:34:42.609Z,101565.55
2022-09-26T18:36:58.245Z,101566.10
2022-09-26T18:39:11.692Z,101569.20
2022-09-26T18:41:27.785Z,101569.45
2022-09-26T18:43:43.565Z,101565.30
2022-09-26T18:45:58.785Z,101571.52
2022-09-26T18:48:16.381Z,101572.34
2022-09-26T18:50:36.127Z,101570.08
2022-09-26T18:52:49.472Z,101571.00
2022-09-26T18:55:18.924Z,101570.55
2022-09-26T18:57:48.674Z,101564.48
2022-09-26T19:00:02.293Z,101567.18
2022-09-26T19:02:25.032Z,101564.80
2022-09-26T19:04:38.631Z,101559.63
2022-09-26T19:07:01.115Z,101560.70
2022-09-26T19:09:16.272Z,101559.27
2022-09-26T19:11:30.442Z,101560.30
2022-09-26T19:13:43.683Z,101559.80
2022-09-26T19:15:57.025Z,101558.41
2022-09-26T19:18:11.126Z,101554.55
2022-09-26T19:20:24.467Z,101557.39
2022-09-26T19:22:37.911Z,101556.34
2022-09-26T19:24:53.796Z,101554.12
2022-09-26T19:27:09.372Z,101557.50
2022-09-26T19:29:31.896Z,101552.60
2022-09-26T19:31:45.693Z,101553.96
2022-09-26T19:34:00.105Z,101555.95
2022-09-26T19:36:16.047Z,101553.41
2022-09-26T19:38:30.360Z,101552.83
2022-09-26T19:40:48.361Z,101552.77
2022-09-26T19:43:02.216Z,101549.81
2022-09-26T19:45:16.957Z,101548.81
2022-09-26T19:47:31.716Z,101546.88
2022-09-26T19:49:45.041Z,101546.76
2022-09-26T19:51:58.380Z,101546.25
2022-09-26T19:54:13.739Z,101546.30
2022-09-26T19:56:27.638Z,101545.60
2022-09-26T19:58:41.268Z,101547.39
2022-09-26T20:00:57.251Z,101549.23
2022-09-26T20:03:12.732Z,101544.85
2022-09-26T20:05:28.113Z,101541.21
2022-09-26T20:07:41.347Z,101539.38
2022-09-26T20:09:56.017Z,101538.20
2022-09-26T20:12:09.631Z,101538.09
2022-09-26T20:14:28.694Z,101538.09
2022-09-26T20:16:45.115Z,101536.31
2022-09-26T20:18:58.836Z,101533.63
2022-09-26T20:21:14.428Z,101533.00
2022-09-26T20:23:29.613Z,101529.39
2022-09-26T20:25:43.021Z,101524.79
2022-09-26T20:27:56.362Z,101527.91
2022-09-26T20:30:30.373Z,101526.43
2022-09-26T20:32:44.035Z,101524.60
2022-09-26T20:35:00.375Z,101523.25
2022-09-26T20:37:16.153Z,101523.14
2022-09-26T20:39:30.692Z,101517.96
2022-09-26T20:41:45.666Z,101515.49
2022-09-26T20:44:04.869Z,101515.23
2022-09-26T20:46:19.326Z,101511.58
2022-09-26T20:48:35.656Z,101514.00
2022-09-26T20:50:49.725Z,101510.77
2022-09-26T20:53:02.950Z,101510.97
2022-09-26T20:55:20.785Z,101507.93
2022-09-26T20:57:34.059Z,101507.11
2022-09-26T20:59:47.349Z,101506.31
2022-09-26T21:02:01.678Z,101506.98
2022-09-26T21:04:20.154Z,101506.59
2022-09-26T21:06:37.522Z,101500.02
2022-09-26T21:08:50.980Z,101500.96
2022-09-26T21:11:04.341Z,101499.74
2022-09-26T21:13:18.083Z,101503.87
2022-09-26T21:15:33.055Z,101495.88
2022-09-26T21:17:47.018Z,101493.08
2022-09-26T21:20:00.351Z,101494.05
2022-09-26T21:22:38.076Z,101494.45
2022-09-26T21:24:52.124Z,101491.95
2022-09-26T21:27:05.375Z,101492.66
2022-09-26T21:29:21.532Z,101490.09
2022-09-26T21:31:36.656Z,101493.37
2022-09-26T21:33:50.038Z,101491.38
2022-09-26T21:36:04.064Z,101492.27
2022-09-26T21:38:17.504Z,101487.53
2022-09-26T21:40:35.032Z,101488.87
2022-09-26T21:42:51.669Z,101490.54
2022-09-26T21:45:09.190Z,101486.76
2022-09-26T21:47:23.154Z,101483.93
2022-09-26T21:49:36.479Z,101481.13
2022-09-26T21:51:53.135Z,101479.22
2022-09-26T21:54:10.313Z,101482.06
2022-09-26T21:56:27.381Z,101477.56
2022-09-26T21:58:44.507Z,101471.66
2022-09-26T22:00:58.888Z,101473.17
2022-09-26T22:03:12.379Z,101473.55
2022-09-26T22:05:25.640Z,101474.52
2022-09-26T22:07:38.956Z,101476.75
2022-09-26T22:09:52.565Z,101479.14
2022-09-26T22:12:06.068Z,101478.73
2022-09-26T22:14:19.541Z,101479.55
2022-09-26T22:16:32.880Z,101482.26
2022-09-26T22:18:46.526Z,101480.09
2022-09-26T22:21:06.056Z,101478.55
2022-09-26T22:23:19.475Z,101476.74
2022-09-26T22:25:32.984Z,101482.39
2022-09-26T22:27:46.294Z,101480.25
2022-09-26T22:29:59.699Z,101479.28
2022-09-26T22:32:13.137Z,101476.00
2022-09-26T22:34:27.412Z,101479.51
2022-09-26T22:36:40.986Z,101479.61
2022-09-26T22:38:54.541Z,101480.07
2022-09-26T22:41:09.449Z,101478.89
2022-09-26T22:43:22.673Z,101479.01
2022-09-26T22:45:36.578Z,101474.98
2022-09-26T22:47:49.913Z,101478.90
2022-09-26T22:50:03.312Z,101476.66
2022-09-26T22:52:16.615Z,101476.57
2022-09-26T22:54:30.042Z,101471.92
2022-09-26T22:56:43.415Z,101471.91
2022-09-26T22:58:57.414Z,101466.34
2022-09-26T23:01:12.787Z,101462.06
2022-09-26T23:03:26.406Z,101467.09
2022-09-26T23:05:40.870Z,101465.60
2022-09-26T23:07:56.081Z,101464.55
2022-09-26T23:10:09.577Z,101465.81
2022-09-26T23:12:22.949Z,101465.79
2022-09-26T23:14:36.207Z,101460.13
2022-09-26T23:16:49.608Z,101461.05
2022-09-26T23:19:03.673Z,101459.08
2022-09-26T23:21:18.246Z,101463.83
2022-09-26T23:23:31.569Z,101465.04
2022-09-26T23:25:51.451Z,101466.36
2022-09-26T23:28:04.869Z,101462.56
2022-09-26T23:30:19.358Z,101462.61
2022-09-26T23:32:32.602Z,101464.77
2022-09-26T23:34:45.819Z,101467.66
2022-09-26T23:36:59.647Z,101462.05
2022-09-26T23:39:13.030Z,101461.27
2022-09-26T23:41:26.360Z,101459.96
2022-09-26T23:43:39.974Z,101457.14
2022-09-26T23:45:53.387Z,101454.41
2022-09-26T23:48:07.063Z,101456.09
2022-09-26T23:50:20.383Z,101455.73
2022-09-26T23:52:33.505Z,101462.09
2022-09-26T23:54:46.887Z,101457.52
2022-09-26T23:57:00.137Z,101458.30
2022-09-26T23:59:13.510Z,101459.11
